sensor_id;sensor_type;location;lat;lon;timestamp;temperature;humidity
43808;DHT22;29438;50.664;10.098;2023-04-24T00:02:14;9.50;87.80
43808;DHT22;29438;50.664;10.098;2023-04-24T00:04:39;9.40;87.80
43808;DHT22;29438;50.664;10.098;2023-04-24T00:07:06;9.40;88.00
43808;DHT22;29438;50.664;10.098;2023-04-24T00:09:32;9.30;88.00
43808;DHT22;29438;50.664;10.098;2023-04-24T00:11:57;9.30;88.30
43808;DHT22;29438;50.664;10.098;2023-04-24T00:14:23;9.20;88.40
43808;DHT22;29438;50.664;10.098;2023-04-24T00:16:49;9.30;88.40
43808;DHT22;29438;50.664;10.098;2023-04-24T00:19:14;9.30;88.20
43808;DHT22;29438;50.664;10.098;2023-04-24T00:21:40;9.30;88.30
43808;DHT22;29438;50.664;10.098;2023-04-24T00:24:07;9.30;88.10
43808;DHT22;29438;50.664;10.098;2023-04-24T00:26:34;9.20;88.40
43808;DHT22;29438;50.664;10.098;2023-04-24T00:28:59;9.20;88.40
43808;DHT22;29438;50.664;10.098;2023-04-24T00:31:25;9.20;88.30
43808;DHT22;29438;50.664;10.098;2023-04-24T00:33:51;9.30;88.50
43808;DHT22;29438;50.664;10.098;2023-04-24T00:36:16;9.30;88.40
43808;DHT22;29438;50.664;10.098;2023-04-24T00:38:44;9.30;88.30
43808;DHT22;29438;50.664;10.098;2023-04-24T00:41:10;9.30;88.40
43808;DHT22;29438;50.664;10.098;2023-04-24T00:43:35;9.40;88.40
43808;DHT22;29438;50.664;10.098;2023-04-24T00:46:01;9.50;88.10
43808;DHT22;29438;50.664;10.098;2023-04-24T00:48:27;9.60;88.00
43808;DHT22;29438;50.664;10.098;2023-04-24T00:50:53;9.70;87.70
43808;DHT22;29438;50.664;10.098;2023-04-24T00:53:19;9.80;87.60
43808;DHT22;29438;50.664;10.098;2023-04-24T00:55:44;9.80;87.50
43808;DHT22;29438;50.664;10.098;2023-04-24T00:58:10;9.90;87.00
43808;DHT22;29438;50.664;10.098;2023-04-24T01:00:36;10.00;87.20
43808;DHT22;29438;50.664;10.098;2023-04-24T01:03:04;10.00;86.70
43808;DHT22;29438;50.664;10.098;2023-04-24T01:05:31;10.00;86.70
43808;DHT22;29438;50.664;10.098;2023-04-24T01:07:57;10.10;86.60
43808;DHT22;29438;50.664;10.098;2023-04-24T01:10:24;10.10;86.40
43808;DHT22;29438;50.664;10.098;2023-04-24T01:12:51;10.10;86.50
43808;DHT22;29438;50.664;10.098;2023-04-24T01:15:17;10.00;86.60
43808;DHT22;29438;50.664;10.098;2023-04-24T01:17:42;10.00;86.50
43808;DHT22;29438;50.664;10.098;2023-04-24T01:20:08;9.90;86.30
43808;DHT22;29438;50.664;10.098;2023-04-24T01:22:34;10.00;86.20
43808;DHT22;29438;50.664;10.098;2023-04-24T01:25:00;10.00;86.20
43808;DHT22;29438;50.664;10.098;2023-04-24T01:27:25;9.90;86.30
43808;DHT22;29438;50.664;10.098;2023-04-24T01:29:51;9.80;86.30
43808;DHT22;29438;50.664;10.098;2023-04-24T01:32:17;9.80;86.10
43808;DHT22;29438;50.664;10.098;2023-04-24T01:34:44;9.80;85.90
43808;DHT22;29438;50.664;10.098;2023-04-24T01:37:10;9.80;85.80
43808;DHT22;29438;50.664;10.098;2023-04-24T01:39:36;9.70;85.60
43808;DHT22;29438;50.664;10.098;2023-04-24T01:42:01;9.70;85.90
43808;DHT22;29438;50.664;10.098;2023-04-24T01:44:30;9.60;86.10
43808;DHT22;29438;50.664;10.098;2023-04-24T01:46:56;9.60;86.30
43808;DHT22;29438;50.664;10.098;2023-04-24T01:49:21;9.60;85.90
43808;DHT22;29438;50.664;10.098;2023-04-24T01:51:47;9.60;86.20
43808;DHT22;29438;50.664;10.098;2023-04-24T01:54:13;9.60;86.20
43808;DHT22;29438;50.664;10.098;2023-04-24T01:56:42;9.60;86.40
43808;DHT22;29438;50.664;10.098;2023-04-24T01:59:10;9.60;85.60
43808;DHT22;29438;50.664;10.098;2023-04-24T02:01:37;9.60;85.90
43808;DHT22;29438;50.664;10.098;2023-04-24T02:04:03;9.60;85.80
43808;DHT22;29438;50.664;10.098;2023-04-24T02:06:29;9.60;85.90
43808;DHT22;29438;50.664;10.098;2023-04-24T02:08:57;9.70;85.80
43808;DHT22;29438;50.664;10.098;2023-04-24T02:11:23;9.60;85.90
43808;DHT22;29438;50.664;10.098;2023-04-24T02:13:48;9.50;86.20
43808;DHT22;29438;50.664;10.098;2023-04-24T02:16:14;9.60;85.90
43808;DHT22;29438;50.664;10.098;2023-04-24T02:18:39;9.50;86.00
43808;DHT22;29438;50.664;10.098;2023-04-24T02:21:05;9.50;86.00
43808;DHT22;29438;50.664;10.098;2023-04-24T02:23:30;9.50;86.10
43808;DHT22;29438;50.664;10.098;2023-04-24T02:25:56;9.40;86.20
43808;DHT22;29438;50.664;10.098;2023-04-24T02:28:21;9.30;86.50
43808;DHT22;29438;50.664;10.098;2023-04-24T02:30:47;9.30;86.70
43808;DHT22;29438;50.664;10.098;2023-04-24T02:33:12;9.40;86.40
43808;DHT22;29438;50.664;10.098;2023-04-24T02:35:38;9.40;86.60
43808;DHT22;29438;50.664;10.098;2023-04-24T02:38:04;9.40;86.40
43808;DHT22;29438;50.664;10.098;2023-04-24T02:40:29;9.40;86.50
43808;DHT22;29438;50.664;10.098;2023-04-24T02:42:55;9.50;86.50
43808;DHT22;29438;50.664;10.098;2023-04-24T02:45:21;9.50;86.50
43808;DHT22;29438;50.664;10.098;2023-04-24T02:47:46;9.50;86.40
43808;DHT22;29438;50.664;10.098;2023-04-24T02:50:12;9.60;86.10
43808;DHT22;29438;50.664;10.098;2023-04-24T02:52:37;9.70;85.90
43808;DHT22;29438;50.664;10.098;2023-04-24T02:55:04;9.70;86.00
43808;DHT22;29438;50.664;10.098;2023-04-24T02:57:30;9.80;85.50
43808;DHT22;29438;50.664;10.098;2023-04-24T02:59:55;9.90;85.20
43808;DHT22;29438;50.664;10.098;2023-04-24T03:02:21;9.90;85.00
43808;DHT22;29438;50.664;10.098;2023-04-24T03:04:47;9.90;85.20
43808;DHT22;29438;50.664;10.098;2023-04-24T03:07:13;9.80;85.30
43808;DHT22;29438;50.664;10.098;2023-04-24T03:09:40;9.80;85.20
43808;DHT22;29438;50.664;10.098;2023-04-24T03:12:05;9.90;84.90
43808;DHT22;29438;50.664;10.098;2023-04-24T03:14:31;9.90;85.00
43808;DHT22;29438;50.664;10.098;2023-04-24T03:16:56;9.90;85.00
43808;DHT22;29438;50.664;10.098;2023-04-24T03:19:22;9.90;84.90
43808;DHT22;29438;50.664;10.098;2023-04-24T03:21:48;9.90;84.50
43808;DHT22;29438;50.664;10.098;2023-04-24T03:24:13;10.00;84.90
43808;DHT22;29438;50.664;10.098;2023-04-24T03:26:39;10.00;85.00
43808;DHT22;29438;50.664;10.098;2023-04-24T03:29:05;10.00;84.80
43808;DHT22;29438;50.664;10.098;2023-04-24T03:31:30;9.90;84.80
43808;DHT22;29438;50.664;10.098;2023-04-24T03:33:55;9.90;84.70
43808;DHT22;29438;50.664;10.098;2023-04-24T03:36:21;9.90;84.90
43808;DHT22;29438;50.664;10.098;2023-04-24T03:38:46;9.90;84.80
43808;DHT22;29438;50.664;10.098;2023-04-24T03:41:12;9.90;84.70
43808;DHT22;29438;50.664;10.098;2023-04-24T03:43:38;9.90;84.70
43808;DHT22;29438;50.664;10.098;2023-04-24T03:46:03;9.80;85.00
43808;DHT22;29438;50.664;10.098;2023-04-24T03:48:29;9.70;85.10
43808;DHT22;29438;50.664;10.098;2023-04-24T03:50:55;9.70;85.30
43808;DHT22;29438;50.664;10.098;2023-04-24T03:53:20;9.50;85.10
43808;DHT22;29438;50.664;10.098;2023-04-24T03:55:46;9.40;85.20
43808;DHT22;29438;50.664;10.098;2023-04-24T03:58:12;9.30;85.40
43808;DHT22;29438;50.664;10.098;2023-04-24T04:00:39;9.20;85.70
43808;DHT22;29438;50.664;10.098;2023-04-24T04:03:05;9.10;85.80
43808;DHT22;29438;50.664;10.098;2023-04-24T04:05:31;9.00;86.20
43808;DHT22;29438;50.664;10.098;2023-04-24T04:07:56;8.90;86.70
43808;DHT22;29438;50.664;10.098;2023-04-24T04:10:22;8.90;86.50
43808;DHT22;29438;50.664;10.098;2023-04-24T04:12:48;9.00;86.20
43808;DHT22;29438;50.664;10.098;2023-04-24T04:15:13;9.00;85.90
43808;DHT22;29438;50.664;10.098;2023-04-24T04:17:39;9.10;85.60
43808;DHT22;29438;50.664;10.098;2023-04-24T04:20:05;9.10;85.30
43808;DHT22;29438;50.664;10.098;2023-04-24T04:22:36;9.20;85.40
43808;DHT22;29438;50.664;10.098;2023-04-24T04:25:02;9.30;85.10
43808;DHT22;29438;50.664;10.098;2023-04-24T04:27:27;9.40;84.70
43808;DHT22;29438;50.664;10.098;2023-04-24T04:29:54;9.40;84.70
43808;DHT22;29438;50.664;10.098;2023-04-24T04:32:21;9.60;83.80
43808;DHT22;29438;50.664;10.098;2023-04-24T04:34:47;9.60;83.80
43808;DHT22;29438;50.664;10.098;2023-04-24T04:37:14;9.60;84.00
43808;DHT22;29438;50.664;10.098;2023-04-24T04:39:40;9.70;83.70
43808;DHT22;29438;50.664;10.098;2023-04-24T04:42:06;9.70;83.80
43808;DHT22;29438;50.664;10.098;2023-04-24T04:44:32;9.70;83.90
43808;DHT22;29438;50.664;10.098;2023-04-24T04:46:58;9.70;83.40
43808;DHT22;29438;50.664;10.098;2023-04-24T04:49:24;9.70;83.90
43808;DHT22;29438;50.664;10.098;2023-04-24T04:51:50;9.80;83.60
43808;DHT22;29438;50.664;10.098;2023-04-24T04:54:16;9.80;83.60
43808;DHT22;29438;50.664;10.098;2023-04-24T04:56:41;9.80;83.60
43808;DHT22;29438;50.664;10.098;2023-04-24T04:59:07;9.80;83.60
43808;DHT22;29438;50.664;10.098;2023-04-24T05:01:32;9.80;83.30
43808;DHT22;29438;50.664;10.098;2023-04-24T05:03:58;9.80;83.50
43808;DHT22;29438;50.664;10.098;2023-04-24T05:06:23;9.70;84.00
43808;DHT22;29438;50.664;10.098;2023-04-24T05:08:49;9.70;84.20
43808;DHT22;29438;50.664;10.098;2023-04-24T05:11:15;9.70;83.20
43808;DHT22;29438;50.664;10.098;2023-04-24T05:13:40;9.70;82.50
43808;DHT22;29438;50.664;10.098;2023-04-24T05:16:06;9.70;82.60
43808;DHT22;29438;50.664;10.098;2023-04-24T05:18:32;9.70;82.60
43808;DHT22;29438;50.664;10.098;2023-04-24T05:20:57;9.60;82.10
43808;DHT22;29438;50.664;10.098;2023-04-24T05:23:23;9.60;82.30
43808;DHT22;29438;50.664;10.098;2023-04-24T05:25:48;9.60;81.90
43808;DHT22;29438;50.664;10.098;2023-04-24T05:28:14;9.50;80.90
43808;DHT22;29438;50.664;10.098;2023-04-24T05:30:40;9.50;79.70
43808;DHT22;29438;50.664;10.098;2023-04-24T05:33:06;9.50;79.80
43808;DHT22;29438;50.664;10.098;2023-04-24T05:35:31;9.50;79.20
43808;DHT22;29438;50.664;10.098;2023-04-24T05:37:57;9.70;79.10
43808;DHT22;29438;50.664;10.098;2023-04-24T05:40:22;9.80;77.70
43808;DHT22;29438;50.664;10.098;2023-04-24T05:42:48;9.70;77.30
43808;DHT22;29438;50.664;10.098;2023-04-24T05:45:13;9.90;77.60
43808;DHT22;29438;50.664;10.098;2023-04-24T05:47:42;10.00;77.40
43808;DHT22;29438;50.664;10.098;2023-04-24T05:50:09;10.30;77.30
43808;DHT22;29438;50.664;10.098;2023-04-24T05:52:35;10.30;78.10
43808;DHT22;29438;50.664;10.098;2023-04-24T05:55:00;10.10;77.70
43808;DHT22;29438;50.664;10.098;2023-04-24T05:57:26;9.70;78.40
43808;DHT22;29438;50.664;10.098;2023-04-24T05:59:52;9.50;79.40
43808;DHT22;29438;50.664;10.098;2023-04-24T06:02:17;9.50;79.60
43808;DHT22;29438;50.664;10.098;2023-04-24T06:04:43;9.30;80.50
43808;DHT22;29438;50.664;10.098;2023-04-24T06:07:10;9.20;80.40
43808;DHT22;29438;50.664;10.098;2023-04-24T06:09:36;9.20;80.70
43808;DHT22;29438;50.664;10.098;2023-04-24T06:12:02;9.10;80.60
43808;DHT22;29438;50.664;10.098;2023-04-24T06:14:27;9.10;80.30
43808;DHT22;29438;50.664;10.098;2023-04-24T06:16:53;9.20;80.40
43808;DHT22;29438;50.664;10.098;2023-04-24T06:19:18;9.20;81.30
43808;DHT22;29438;50.664;10.098;2023-04-24T06:21:44;9.20;80.70
43808;DHT22;29438;50.664;10.098;2023-04-24T06:24:10;9.50;80.20
43808;DHT22;29438;50.664;10.098;2023-04-24T06:26:36;10.60;80.40
43808;DHT22;29438;50.664;10.098;2023-04-24T06:29:01;12.70;73.30
43808;DHT22;29438;50.664;10.098;2023-04-24T06:31:27;12.30;69.00
43808;DHT22;29438;50.664;10.098;2023-04-24T06:33:52;12.20;69.10
43808;DHT22;29438;50.664;10.098;2023-04-24T06:36:18;12.20;69.60
43808;DHT22;29438;50.664;10.098;2023-04-24T06:38:43;14.80;64.60
43808;DHT22;29438;50.664;10.098;2023-04-24T06:41:10;16.60;52.30
43808;DHT22;29438;50.664;10.098;2023-04-24T06:43:35;15.10;55.90
43808;DHT22;29438;50.664;10.098;2023-04-24T06:46:01;12.80;62.40
43808;DHT22;29438;50.664;10.098;2023-04-24T06:48:28;12.40;64.90
43808;DHT22;29438;50.664;10.098;2023-04-24T06:50:54;11.60;67.70
43808;DHT22;29438;50.664;10.098;2023-04-24T06:53:19;11.20;68.60
43808;DHT22;29438;50.664;10.098;2023-04-24T06:55:45;10.80;70.40
43808;DHT22;29438;50.664;10.098;2023-04-24T06:58:11;13.70;66.60
43808;DHT22;29438;50.664;10.098;2023-04-24T07:00:37;17.00;51.20
43808;DHT22;29438;50.664;10.098;2023-04-24T07:03:04;19.30;45.80
43808;DHT22;29438;50.664;10.098;2023-04-24T07:05:31;17.70;45.30
43808;DHT22;29438;50.664;10.098;2023-04-24T07:07:58;14.40;52.70
43808;DHT22;29438;50.664;10.098;2023-04-24T07:10:24;13.00;58.50
43808;DHT22;29438;50.664;10.098;2023-04-24T07:12:52;13.80;58.50
43808;DHT22;29438;50.664;10.098;2023-04-24T07:15:17;13.10;60.40
43808;DHT22;29438;50.664;10.098;2023-04-24T07:17:43;12.90;61.50
43808;DHT22;29438;50.664;10.098;2023-04-24T07:20:10;14.50;59.60
43808;DHT22;29438;50.664;10.098;2023-04-24T07:22:37;15.20;55.90
43808;DHT22;29438;50.664;10.098;2023-04-24T07:25:02;14.60;57.40
43808;DHT22;29438;50.664;10.098;2023-04-24T07:27:28;13.30;59.40
43808;DHT22;29438;50.664;10.098;2023-04-24T07:29:53;14.30;56.80
43808;DHT22;29438;50.664;10.098;2023-04-24T07:32:19;13.90;55.80
43808;DHT22;29438;50.664;10.098;2023-04-24T07:34:44;15.70;52.60
43808;DHT22;29438;50.664;10.098;2023-04-24T07:37:10;16.70;45.80
43808;DHT22;29438;50.664;10.098;2023-04-24T07:39:36;16.70;48.00
43808;DHT22;29438;50.664;10.098;2023-04-24T07:42:01;19.30;44.30
43808;DHT22;29438;50.664;10.098;2023-04-24T07:44:27;20.00;42.50
43808;DHT22;29438;50.664;10.098;2023-04-24T07:46:54;18.70;41.70
43808;DHT22;29438;50.664;10.098;2023-04-24T07:49:20;14.40;49.30
43808;DHT22;29438;50.664;10.098;2023-04-24T07:51:45;12.30;54.90
43808;DHT22;29438;50.664;10.098;2023-04-24T07:54:11;12.50;55.90
43808;DHT22;29438;50.664;10.098;2023-04-24T07:56:36;12.70;55.30
43808;DHT22;29438;50.664;10.098;2023-04-24T07:59:04;12.20;56.10
43808;DHT22;29438;50.664;10.098;2023-04-24T08:01:30;11.90;57.90
43808;DHT22;29438;50.664;10.098;2023-04-24T08:03:55;12.70;56.40
43808;DHT22;29438;50.664;10.098;2023-04-24T08:06:22;12.70;55.70
43808;DHT22;29438;50.664;10.098;2023-04-24T08:08:47;12.10;57.20
43808;DHT22;29438;50.664;10.098;2023-04-24T08:11:13;12.30;57.20
43808;DHT22;29438;50.664;10.098;2023-04-24T08:13:38;13.00;55.80
43808;DHT22;29438;50.664;10.098;2023-04-24T08:16:04;15.30;52.70
43808;DHT22;29438;50.664;10.098;2023-04-24T08:18:29;15.70;49.90
43808;DHT22;29438;50.664;10.098;2023-04-24T08:20:55;15.90;50.70
43808;DHT22;29438;50.664;10.098;2023-04-24T08:23:21;14.70;51.20
43808;DHT22;29438;50.664;10.098;2023-04-24T08:25:48;15.50;51.00
43808;DHT22;29438;50.664;10.098;2023-04-24T08:28:14;17.70;48.00
43808;DHT22;29438;50.664;10.098;2023-04-24T08:30:45;20.10;41.50
43808;DHT22;29438;50.664;10.098;2023-04-24T08:33:11;18.40;45.70
43808;DHT22;29438;50.664;10.098;2023-04-24T08:35:36;17.90;44.40
43808;DHT22;29438;50.664;10.098;2023-04-24T08:38:02;17.50;46.90
43808;DHT22;29438;50.664;10.098;2023-04-24T08:40:28;16.30;49.20
43808;DHT22;29438;50.664;10.098;2023-04-24T08:42:57;16.40;46.50
43808;DHT22;29438;50.664;10.098;2023-04-24T08:45:24;14.00;49.90
43808;DHT22;29438;50.664;10.098;2023-04-24T08:47:52;13.00;51.90
43808;DHT22;29438;50.664;10.098;2023-04-24T08:50:18;12.70;53.60
43808;DHT22;29438;50.664;10.098;2023-04-24T08:52:44;14.20;51.90
43808;DHT22;29438;50.664;10.098;2023-04-24T08:55:10;15.30;50.30
43808;DHT22;29438;50.664;10.098;2023-04-24T08:57:36;15.60;48.90
43808;DHT22;29438;50.664;10.098;2023-04-24T09:00:04;15.40;50.50
43808;DHT22;29438;50.664;10.098;2023-04-24T09:02:30;16.90;46.30
43808;DHT22;29438;50.664;10.098;2023-04-24T09:04:57;16.10;47.30
43808;DHT22;29438;50.664;10.098;2023-04-24T09:07:24;15.20;49.40
43808;DHT22;29438;50.664;10.098;2023-04-24T09:09:51;14.40;51.40
43808;DHT22;29438;50.664;10.098;2023-04-24T09:12:17;14.80;52.00
43808;DHT22;29438;50.664;10.098;2023-04-24T09:14:44;15.20;50.10
43808;DHT22;29438;50.664;10.098;2023-04-24T09:17:11;14.70;51.90
43808;DHT22;29438;50.664;10.098;2023-04-24T09:19:36;14.70;52.90
43808;DHT22;29438;50.664;10.098;2023-04-24T09:22:06;16.10;50.00
43808;DHT22;29438;50.664;10.098;2023-04-24T09:24:32;16.50;49.60
43808;DHT22;29438;50.664;10.098;2023-04-24T09:26:58;16.30;48.40
43808;DHT22;29438;50.664;10.098;2023-04-24T09:29:24;17.10;47.20
43808;DHT22;29438;50.664;10.098;2023-04-24T09:31:50;16.60;48.10
43808;DHT22;29438;50.664;10.098;2023-04-24T09:34:24;15.10;51.00
43808;DHT22;29438;50.664;10.098;2023-04-24T09:36:50;15.60;50.80
43808;DHT22;29438;50.664;10.098;2023-04-24T09:39:17;16.20;48.50
43808;DHT22;29438;50.664;10.098;2023-04-24T09:41:51;14.80;51.00
43808;DHT22;29438;50.664;10.098;2023-04-24T09:44:21;13.80;52.50
43808;DHT22;29438;50.664;10.098;2023-04-24T09:46:54;13.30;54.10
43808;DHT22;29438;50.664;10.098;2023-04-24T09:49:23;13.60;53.80
43808;DHT22;29438;50.664;10.098;2023-04-24T09:51:50;13.70;54.80
43808;DHT22;29438;50.664;10.098;2023-04-24T09:54:21;13.70;54.60
43808;DHT22;29438;50.664;10.098;2023-04-24T09:56:48;13.70;54.10
43808;DHT22;29438;50.664;10.098;2023-04-24T09:59:16;13.40;54.50
43808;DHT22;29438;50.664;10.098;2023-04-24T10:01:42;12.90;56.00
43808;DHT22;29438;50.664;10.098;2023-04-24T10:04:21;13.10;55.20
43808;DHT22;29438;50.664;10.098;2023-04-24T10:06:49;13.30;56.40
43808;DHT22;29438;50.664;10.098;2023-04-24T10:09:15;13.70;55.20
43808;DHT22;29438;50.664;10.098;2023-04-24T10:11:43;14.00;54.50
43808;DHT22;29438;50.664;10.098;2023-04-24T10:14:14;13.80;53.80
43808;DHT22;29438;50.664;10.098;2023-04-24T10:16:40;13.50;53.50
43808;DHT22;29438;50.664;10.098;2023-04-24T10:19:07;13.60;54.80
43808;DHT22;29438;50.664;10.098;2023-04-24T10:21:33;14.00;54.30
43808;DHT22;29438;50.664;10.098;2023-04-24T10:23:59;13.70;53.60
43808;DHT22;29438;50.664;10.098;2023-04-24T10:26:28;14.10;53.70
43808;DHT22;29438;50.664;10.098;2023-04-24T10:28:54;14.00;55.00
43808;DHT22;29438;50.664;10.098;2023-04-24T10:31:22;13.00;56.60
43808;DHT22;29438;50.664;10.098;2023-04-24T10:33:50;12.60;57.20
43808;DHT22;29438;50.664;10.098;2023-04-24T10:36:16;12.30;58.50
43808;DHT22;29438;50.664;10.098;2023-04-24T10:38:43;12.20;58.70
43808;DHT22;29438;50.664;10.098;2023-04-24T10:41:12;12.20;60.20
43808;DHT22;29438;50.664;10.098;2023-04-24T10:44:03;12.80;58.60
43808;DHT22;29438;50.664;10.098;2023-04-24T10:46:30;12.70;57.40
43808;DHT22;29438;50.664;10.098;2023-04-24T10:48:56;12.40;58.40
43808;DHT22;29438;50.664;10.098;2023-04-24T10:51:23;12.20;60.10
43808;DHT22;29438;50.664;10.098;2023-04-24T10:53:50;12.00;59.70
43808;DHT22;29438;50.664;10.098;2023-04-24T10:56:16;12.00;59.90
43808;DHT22;29438;50.664;10.098;2023-04-24T10:58:44;12.40;60.00
43808;DHT22;29438;50.664;10.098;2023-04-24T11:01:27;13.20;58.40
43808;DHT22;29438;50.664;10.098;2023-04-24T11:03:58;13.80;58.00
43808;DHT22;29438;50.664;10.098;2023-04-24T11:06:31;13.80;56.60
43808;DHT22;29438;50.664;10.098;2023-04-24T11:09:08;13.40;57.40
43808;DHT22;29438;50.664;10.098;2023-04-24T11:11:35;13.20;57.70
43808;DHT22;29438;50.664;10.098;2023-04-24T11:14:02;13.50;57.40
43808;DHT22;29438;50.664;10.098;2023-04-24T11:16:31;13.50;57.20
43808;DHT22;29438;50.664;10.098;2023-04-24T11:21:53;13.00;58.90
43808;DHT22;29438;50.664;10.098;2023-04-24T11:27:17;13.20;57.90
43808;DHT22;29438;50.664;10.098;2023-04-24T11:35:01;13.40;58.20
43808;DHT22;29438;50.664;10.098;2023-04-24T11:37:35;13.60;58.30
43808;DHT22;29438;50.664;10.098;2023-04-24T11:40:01;12.90;58.30
43808;DHT22;29438;50.664;10.098;2023-04-24T11:42:28;12.70;59.50
43808;DHT22;29438;50.664;10.098;2023-04-24T11:44:54;12.80;59.00
43808;DHT22;29438;50.664;10.098;2023-04-24T11:47:31;13.00;58.70
43808;DHT22;29438;50.664;10.098;2023-04-24T11:49:59;13.50;58.20
43808;DHT22;29438;50.664;10.098;2023-04-24T11:52:25;13.60;58.00
43808;DHT22;29438;50.664;10.098;2023-04-24T11:54:51;13.50;58.00
43808;DHT22;29438;50.664;10.098;2023-04-24T11:57:19;13.50;59.70
43808;DHT22;29438;50.664;10.098;2023-04-24T11:59:45;12.70;64.00
43808;DHT22;29438;50.664;10.098;2023-04-24T12:02:21;12.20;68.60
43808;DHT22;29438;50.664;10.098;2023-04-24T12:04:46;11.70;72.20
43808;DHT22;29438;50.664;10.098;2023-04-24T12:07:12;11.00;75.10
43808;DHT22;29438;50.664;10.098;2023-04-24T12:09:57;10.80;76.30
43808;DHT22;29438;50.664;10.098;2023-04-24T12:12:26;10.90;76.50
43808;DHT22;29438;50.664;10.098;2023-04-24T12:14:58;11.20;77.00
43808;DHT22;29438;50.664;10.098;2023-04-24T12:17:29;11.50;76.20
43808;DHT22;29438;50.664;10.098;2023-04-24T12:20:06;11.20;76.10
43808;DHT22;29438;50.664;10.098;2023-04-24T12:25:11;11.00;78.10
43808;DHT22;29438;50.664;10.098;2023-04-24T12:27:37;10.70;78.00
43808;DHT22;29438;50.664;10.098;2023-04-24T12:30:05;11.70;76.60
43808;DHT22;29438;50.664;10.098;2023-04-24T12:32:30;11.40;73.00
43808;DHT22;29438;50.664;10.098;2023-04-24T12:34:57;11.60;74.90
43808;DHT22;29438;50.664;10.098;2023-04-24T12:37:24;12.10;73.60
43808;DHT22;29438;50.664;10.098;2023-04-24T12:40:10;12.40;73.60
43808;DHT22;29438;50.664;10.098;2023-04-24T12:42:42;12.30;72.20
43808;DHT22;29438;50.664;10.098;2023-04-24T12:45:08;12.50;72.30
43808;DHT22;29438;50.664;10.098;2023-04-24T12:47:34;13.00;70.70
43808;DHT22;29438;50.664;10.098;2023-04-24T12:50:01;12.90;69.80
43808;DHT22;29438;50.664;10.098;2023-04-24T12:52:28;12.80;71.00
43808;DHT22;29438;50.664;10.098;2023-04-24T12:54:55;13.10;70.30
43808;DHT22;29438;50.664;10.098;2023-04-24T12:57:24;13.10;68.70
43808;DHT22;29438;50.664;10.098;2023-04-24T12:59:50;13.50;67.50
43808;DHT22;29438;50.664;10.098;2023-04-24T13:02:16;13.80;66.50
43808;DHT22;29438;50.664;10.098;2023-04-24T13:04:44;14.20;66.10
43808;DHT22;29438;50.664;10.098;2023-04-24T13:07:11;14.20;63.90
43808;DHT22;29438;50.664;10.098;2023-04-24T13:09:37;14.50;63.20
43808;DHT22;29438;50.664;10.098;2023-04-24T13:12:03;14.60;63.10
43808;DHT22;29438;50.664;10.098;2023-04-24T13:14:33;14.70;65.60
43808;DHT22;29438;50.664;10.098;2023-04-24T13:16:59;14.20;63.50
43808;DHT22;29438;50.664;10.098;2023-04-24T13:19:25;14.40;64.50
43808;DHT22;29438;50.664;10.098;2023-04-24T13:21:52;13.80;64.40
43808;DHT22;29438;50.664;10.098;2023-04-24T13:24:17;12.60;63.90
43808;DHT22;29438;50.664;10.098;2023-04-24T13:26:43;12.10;67.10
43808;DHT22;29438;50.664;10.098;2023-04-24T13:29:09;12.50;67.40
43808;DHT22;29438;50.664;10.098;2023-04-24T13:31:34;13.20;65.40
43808;DHT22;29438;50.664;10.098;2023-04-24T13:34:00;13.80;65.00
43808;DHT22;29438;50.664;10.098;2023-04-24T13:36:26;14.20;62.60
43808;DHT22;29438;50.664;10.098;2023-04-24T13:38:52;13.90;62.50
43808;DHT22;29438;50.664;10.098;2023-04-24T13:41:17;13.00;64.30
43808;DHT22;29438;50.664;10.098;2023-04-24T13:43:43;12.70;67.80
43808;DHT22;29438;50.664;10.098;2023-04-24T13:46:08;13.30;70.20
43808;DHT22;29438;50.664;10.098;2023-04-24T13:48:34;13.90;69.00
43808;DHT22;29438;50.664;10.098;2023-04-24T13:50:59;14.20;65.80
43808;DHT22;29438;50.664;10.098;2023-04-24T13:53:25;13.80;64.60
43808;DHT22;29438;50.664;10.098;2023-04-24T13:55:50;13.90;64.70
43808;DHT22;29438;50.664;10.098;2023-04-24T13:58:16;14.10;63.60
43808;DHT22;29438;50.664;10.098;2023-04-24T14:00:42;13.20;64.90
43808;DHT22;29438;50.664;10.098;2023-04-24T14:03:07;12.30;65.60
43808;DHT22;29438;50.664;10.098;2023-04-24T14:05:32;12.90;65.40
43808;DHT22;29438;50.664;10.098;2023-04-24T14:07:58;13.40;64.00
43808;DHT22;29438;50.664;10.098;2023-04-24T14:10:24;13.70;64.40
43808;DHT22;29438;50.664;10.098;2023-04-24T14:12:50;13.60;63.50
43808;DHT22;29438;50.664;10.098;2023-04-24T14:15:15;13.70;63.40
43808;DHT22;29438;50.664;10.098;2023-04-24T14:17:42;13.60;63.20
43808;DHT22;29438;50.664;10.098;2023-04-24T14:20:07;13.20;60.90
43808;DHT22;29438;50.664;10.098;2023-04-24T14:23:03;13.20;62.10
43808;DHT22;29438;50.664;10.098;2023-04-24T14:25:29;12.70;62.80
43808;DHT22;29438;50.664;10.098;2023-04-24T14:27:55;12.70;64.80
43808;DHT22;29438;50.664;10.098;2023-04-24T14:30:21;12.70;63.40
43808;DHT22;29438;50.664;10.098;2023-04-24T14:32:46;12.40;63.70
43808;DHT22;29438;50.664;10.098;2023-04-24T14:35:12;12.10;65.00
43808;DHT22;29438;50.664;10.098;2023-04-24T14:37:37;11.70;63.60
43808;DHT22;29438;50.664;10.098;2023-04-24T14:40:06;11.60;65.20
43808;DHT22;29438;50.664;10.098;2023-04-24T14:42:33;11.30;64.10
43808;DHT22;29438;50.664;10.098;2023-04-24T14:44:59;11.20;64.30
43808;DHT22;29438;50.664;10.098;2023-04-24T14:47:24;11.60;65.10
43808;DHT22;29438;50.664;10.098;2023-04-24T14:49:50;11.70;63.50
43808;DHT22;29438;50.664;10.098;2023-04-24T14:52:16;11.80;62.50
43808;DHT22;29438;50.664;10.098;2023-04-24T14:54:42;11.80;61.80
43808;DHT22;29438;50.664;10.098;2023-04-24T14:57:08;11.40;63.00
43808;DHT22;29438;50.664;10.098;2023-04-24T14:59:34;11.40;63.20
43808;DHT22;29438;50.664;10.098;2023-04-24T15:01:59;11.40;63.20
43808;DHT22;29438;50.664;10.098;2023-04-24T15:04:25;11.30;64.70
43808;DHT22;29438;50.664;10.098;2023-04-24T15:06:52;11.50;64.30
43808;DHT22;29438;50.664;10.098;2023-04-24T15:09:23;11.60;64.20
43808;DHT22;29438;50.664;10.098;2023-04-24T15:11:49;11.30;64.00
43808;DHT22;29438;50.664;10.098;2023-04-24T15:14:16;10.90;67.00
43808;DHT22;29438;50.664;10.098;2023-04-24T15:16:41;11.00;66.20
43808;DHT22;29438;50.664;10.098;2023-04-24T15:19:07;10.80;65.30
43808;DHT22;29438;50.664;10.098;2023-04-24T15:21:33;10.70;64.90
43808;DHT22;29438;50.664;10.098;2023-04-24T15:23:58;10.50;65.20
43808;DHT22;29438;50.664;10.098;2023-04-24T15:26:24;10.40;66.90
43808;DHT22;29438;50.664;10.098;2023-04-24T15:28:51;10.30;67.30
43808;DHT22;29438;50.664;10.098;2023-04-24T15:31:17;10.20;68.50
43808;DHT22;29438;50.664;10.098;2023-04-24T15:33:43;10.00;68.40